地図

経路データ

SID SEASON NUMBER BASIN SUBBASIN NAME ISO_TIME NATURE LAT LON WMO_WIND WMO_PRES WMO_AGENCY TRACK_TYPE DIST2LAND LANDFALL IFLAG USA_AGENCY USA_ATCF_ID USA_LAT USA_LON USA_RECORD USA_STATUS USA_WIND USA_PRES USA_SSHS USA_R34_NE USA_R34_SE USA_R34_SW USA_R34_NW USA_R50_NE USA_R50_SE USA_R50_SW USA_R50_NW USA_R64_NE USA_R64_SE USA_R64_SW USA_R64_NW USA_POCI USA_ROCI USA_RMW USA_EYE TOKYO_LAT TOKYO_LON TOKYO_GRADE TOKYO_WIND TOKYO_PRES TOKYO_R50_DIR TOKYO_R50_LONG TOKYO_R50_SHORT TOKYO_R30_DIR TOKYO_R30_LONG TOKYO_R30_SHORT TOKYO_LAND CMA_LAT CMA_LON CMA_CAT CMA_WIND CMA_PRES HKO_LAT HKO_LON HKO_CAT HKO_WIND HKO_PRES NEWDELHI_LAT NEWDELHI_LON NEWDELHI_GRADE NEWDELHI_WIND NEWDELHI_PRES NEWDELHI_CI NEWDELHI_DP NEWDELHI_POCI REUNION_LAT REUNION_LON REUNION_TYPE REUNION_WIND REUNION_PRES REUNION_TNUM REUNION_CI REUNION_RMW REUNION_R34_NE REUNION_R34_SE REUNION_R34_SW REUNION_R34_NW REUNION_R50_NE REUNION_R50_SE REUNION_R50_SW REUNION_R50_NW REUNION_R64_NE REUNION_R64_SE REUNION_R64_SW REUNION_R64_NW BOM_LAT BOM_LON BOM_TYPE BOM_WIND BOM_PRES BOM_TNUM BOM_CI BOM_RMW BOM_R34_NE BOM_R34_SE BOM_R34_SW BOM_R34_NW BOM_R50_NE BOM_R50_SE BOM_R50_SW BOM_R50_NW BOM_R64_NE BOM_R64_SE BOM_R64_SW BOM_R64_NW BOM_ROCI BOM_POCI BOM_EYE BOM_POS_METHOD BOM_PRES_METHOD NADI_LAT NADI_LON NADI_CAT NADI_WIND NADI_PRES WELLINGTON_LAT WELLINGTON_LON WELLINGTON_WIND WELLINGTON_PRES DS824_LAT DS824_LON DS824_STAGE DS824_WIND DS824_PRES TD9636_LAT TD9636_LON TD9636_STAGE TD9636_WIND TD9636_PRES TD9635_LAT TD9635_LON TD9635_WIND TD9635_PRES TD9635_ROCI NEUMANN_LAT NEUMANN_LON NEUMANN_CLASS NEUMANN_WIND NEUMANN_PRES MLC_LAT MLC_LON MLC_CLASS MLC_WIND MLC_PRES USA_GUST BOM_GUST BOM_GUST_PER REUNION_GUST REUNION_GUST_PER USA_SEAHGT USA_SEARAD_NE USA_SEARAD_SE USA_SEARAD_SW USA_SEARAD_NW STORM_SPEED STORM_DIR
1869305S06092 1870 23 SI WA NOT_NAMED 1869-11-01 06:00:00 NR -6.30000 92.3000 spur-split 895 895 _____O________ -1 -6.30000 92.3000 99 9.90000 1 239
1869305S06092 1870 23 SI WA NOT_NAMED 1869-11-01 09:00:00 NR -6.32055 92.2567 spur-split 895 895 _____P________ -1 -6.32055 92.2567 99 1 244
1869305S06092 1870 23 SI WA NOT_NAMED 1869-11-01 12:00:00 NR -6.34866 92.2020 spur-split 904 904 _____P________ -1 -6.34866 92.2020 99 1 241
1869305S06092 1870 23 SI WA NOT_NAMED 1869-11-01 15:00:00 NR -6.39193 92.1247 spur-split 920 920 _____P________ -1 -6.39193 92.1247 99 2 240
1869305S06092 1870 23 SI WA NOT_NAMED 1869-11-01 18:00:00 NR -6.45790 92.0134 spur-split 935 935 _____P________ -1 -6.45790 92.0134 99 3 239
1869305S06092 1870 23 SI WA NOT_NAMED 1869-11-01 21:00:00 NR -6.55416 91.8568 spur-split 951 951 _____P________ -1 -6.55416 91.8568 99 4 238
1869305S06092 1870 23 SI WA NOT_NAMED 1869-11-02 00:00:00 NR -6.68824 91.6434 spur-split 985 985 _____P________ -1 -6.68824 91.6434 99 6 237
1869305S06092 1870 23 SI WA NOT_NAMED 1869-11-02 03:00:00 NR -6.86769 91.3616 spur-split 1015 1015 _____P________ -1 -6.86769 91.3616 99 8 237
1869305S06092 1870 23 SI WA NOT_NAMED 1869-11-02 06:00:00 NR -7.10000 91.0000 spur-split 1065 1065 _____O________ -1 -7.10000 91.0000 99 9.90000 10 237
1869305S06092 1870 23 SI WA NOT_NAMED 1869-11-02 09:00:00 NR -7.38939 90.5523 spur-split 1120 1120 _____P________ -1 -7.38939 90.5523 99 11 237
1869305S06092 1870 23 SI WA NOT_NAMED 1869-11-02 12:00:00 NR -7.72710 90.0346 spur-split 1194 1194 _____P________ -1 -7.72710 90.0346 99 13 236
1869305S06092 1870 23 SI MM NOT_NAMED 1869-11-02 15:00:00 NR -8.10112 89.4690 spur-split 1264 1264 _____P________ -1 -8.10112 89.4690 99 14 236
1869305S06092 1870 23 SI MM NOT_NAMED 1869-11-02 18:00:00 NR -8.49945 88.8775 spur-split 1344 1344 _____P________ -1 -8.49945 88.8775 99 14 235
1869305S06092 1870 23 SI MM NOT_NAMED 1869-11-02 21:00:00 NR -8.91019 88.2824 spur-split 1424 1424 _____P________ -1 -8.91019 88.2824 99 14 235
1869305S06092 1870 23 SI MM NOT_NAMED 1869-11-03 00:00:00 NR -9.32157 87.7061 spur-split 1504 1504 _____P________ -1 -9.32157 87.7061 99 14 233
1869305S06092 1870 23 SI MM NOT_NAMED 1869-11-03 03:00:00 NR -9.72197 87.1711 spur-split 1574 1574 _____P________ -1 -9.72197 87.1711 99 13 232
1869305S06092 1870 23 SI MM NOT_NAMED 1869-11-03 06:00:00 NR -10.1000 86.7000 spur-split 1645 1645 _____O________ -1 -10.1000 86.7000 99 9.90000 10 229
1869305S06092 1870 23 SI MM NOT_NAMED 1869-11-03 09:00:00 NR -10.4013 86.3656 spur-split 1691 1691 _____P________ -1 -10.4013 86.3656 99 8 226
1869305S06092 1870 23 SI MM NOT_NAMED 1869-11-03 12:00:00 NR -10.6849 86.0876 spur-split 1737 1737 _____P________ -1 -10.6849 86.0876 99 8 222
1869305S06092 1870 23 SI MM NOT_NAMED 1869-11-03 15:00:00 NR -10.9561 85.8570 spur-split 1774 1774 _____P________ -1 -10.9561 85.8570 99 7 218
1869305S06092 1870 23 SI MM NOT_NAMED 1869-11-03 18:00:00 NR -11.2198 85.6648 spur-split 1805 1805 _____P________ -1 -11.2198 85.6648 99 6 213
1869305S06092 1870 23 SI MM NOT_NAMED 1869-11-03 21:00:00 NR -11.4811 85.5021 spur-split 1842 1842 _____P________ -1 -11.4811 85.5021 99 6 210
1869305S06092 1870 23 SI MM NOT_NAMED 1869-11-04 00:00:00 NR -11.7449 85.3598 spur-split 1864 1864 _____P________ -1 -11.7449 85.3598 99 6 207
1869305S06092 1870 23 SI MM NOT_NAMED 1869-11-04 03:00:00 NR -12.0162 85.2288 spur-split 1901 1901 _____P________ -1 -12.0162 85.2288 99 6 205
1869305S06092 1870 23 SI MM NOT_NAMED 1869-11-04 06:00:00 NR -12.3000 85.1000 spur-split 1930 1930 _____O________ -1 -12.3000 85.1000 99 9.90000 7 207
1869305S06092 1870 23 SI MM NOT_NAMED 1869-11-04 09:00:00 NR -12.6180 84.9143 spur-split 1968 1968 _____P________ -1 -12.6180 84.9143 99 7 209
1869305S06092 1870 23 SI MM NOT_NAMED 1869-11-04 12:00:00 NR -12.9471 84.7350 spur-split 2005 2005 _____P________ -1 -12.9471 84.7350 99 8 207
1869305S06092 1870 23 SI MM NOT_NAMED 1869-11-04 15:00:00 NR -13.2845 84.5640 spur-split 2041 2041 _____P________ -1 -13.2845 84.5640 99 8 205
1869305S06092 1870 23 SI MM NOT_NAMED 1869-11-04 18:00:00 NR -13.6275 84.4031 spur-split 2079 2079 _____P________ -1 -13.6275 84.4031 99 8 204
1869305S06092 1870 23 SI MM NOT_NAMED 1869-11-04 21:00:00 NR -13.9733 84.2543 spur-split 2116 2116 _____P________ -1 -13.9733 84.2543 99 7 202
1869305S06092 1870 23 SI MM NOT_NAMED 1869-11-05 00:00:00 NR -14.3191 84.1195 spur-split 2154 2154 _____P________ -1 -14.3191 84.1195 99 7 200
1869305S06092 1870 23 SI MM NOT_NAMED 1869-11-05 03:00:00 NR -14.6623 84.0008 spur-split 2191 2191 _____P________ -1 -14.6623 84.0008 99 7 197
1869305S06092 1870 23 SI MM NOT_NAMED 1869-11-05 06:00:00 NR -15.0000 83.9000 spur-split 2221 2221 _____O________ -1 -15.0000 83.9000 99 9.90000 7 196
1869305S06092 1870 23 SI MM NOT_NAMED 1869-11-05 09:00:00 NR -15.3197 83.8051 spur-split 2251 2251 _____P________ -1 -15.3197 83.8051 99 7 195
1869305S06092 1870 23 SI MM NOT_NAMED 1869-11-05 12:00:00 NR -15.6350 83.7275 spur-split 2281 2281 _____P________ -1 -15.6350 83.7275 99 6 192
1869305S06092 1870 23 SI MM NOT_NAMED 1869-11-05 15:00:00 NR -15.9471 83.6668 spur-split 2304 2304 _____P________ -1 -15.9471 83.6668 99 6 189
1869305S06092 1870 23 SI MM NOT_NAMED 1869-11-05 18:00:00 NR -16.2571 83.6224 spur-split 2342 2342 _____P________ -1 -16.2571 83.6224 99 6 186
1869305S06092 1870 23 SI MM NOT_NAMED 1869-11-05 21:00:00 NR -16.5663 83.5940 spur-split 2364 2364 _____P________ -1 -16.5663 83.5940 99 6 183
1869305S06092 1870 23 SI MM NOT_NAMED 1869-11-06 00:00:00 NR -16.8757 83.5811 spur-split 2388 2388 _____P________ -1 -16.8757 83.5811 99 6 182
1869305S06092 1870 23 SI MM NOT_NAMED 1869-11-06 03:00:00 NR -17.1866 83.5832 spur-split 2411 2411 _____P________ -1 -17.1866 83.5832 99 6 179
1869305S06092 1870 23 SI MM NOT_NAMED 1869-11-06 06:00:00 NR -17.5000 83.6000 spur-split 2435 2435 _____O________ -1 -17.5000 83.6000 99 9.90000 7 178
1869305S06092 1870 23 SI MM NOT_NAMED 1869-11-06 09:00:00 NR -17.8432 83.6210 spur-split 2458 2458 _____P________ -1 -17.8432 83.6210 99 7 176
1869305S06092 1870 23 SI MM NOT_NAMED 1869-11-06 12:00:00 NR -18.1914 83.6585 spur-split 2483 2483 _____P________ -1 -18.1914 83.6585 99 7 173
1869305S06092 1870 23 SI MM NOT_NAMED 1869-11-06 15:00:00 NR -18.5395 83.7103 spur-split 2508 2508 _____P________ -1 -18.5395 83.7103 99 7 171
1869305S06092 1870 23 SI MM NOT_NAMED 1869-11-06 18:00:00 NR -18.8824 83.7739 spur-split 2533 2533 _____P________ -1 -18.8824 83.7739 99 7 169
1869305S06092 1870 23 SI MM NOT_NAMED 1869-11-06 21:00:00 NR -19.2150 83.8471 spur-split 2558 2551 _____P________ -1 -19.2150 83.8471 99 7 167
1869305S06092 1870 23 SI MM NOT_NAMED 1869-11-07 00:00:00 NR -19.5321 83.9274 spur-split 2576 2576 _____P________ -1 -19.5321 83.9274 99 6 165
1869305S06092 1870 23 SI MM NOT_NAMED 1869-11-07 03:00:00 NR -19.8288 84.0125 spur-split 2595 2595 _____P________ -1 -19.8288 84.0125 99 6 164
1869305S06092 1870 23 SI MM NOT_NAMED 1869-11-07 06:00:00 NR -20.1000 84.1000 spur-split 2614 2614 _____O________ -1 -20.1000 84.1000 99 9.90000 5 162
1869305S06092 1870 23 SI MM NOT_NAMED 1869-11-07 09:00:00 NR -20.3420 84.1877 spur-split 2624 2624 _____P________ -1 -20.3420 84.1877 99 5 160
1869305S06092 1870 23 SI MM NOT_NAMED 1869-11-07 12:00:00 NR -20.5572 84.2754 spur-split 2644 2644 _____P________ -1 -20.5572 84.2754 99 4 158
1869305S06092 1870 23 SI MM NOT_NAMED 1869-11-07 15:00:00 NR -20.7495 84.3629 spur-split 2646 2646 _____P________ -1 -20.7495 84.3629 99 4 156
1869305S06092 1870 23 SI MM NOT_NAMED 1869-11-07 18:00:00 NR -20.9226 84.4503 spur-split 2657 2657 _____P________ -1 -20.9226 84.4503 99 4 154
1869305S06092 1870 23 SI MM NOT_NAMED 1869-11-07 21:00:00 NR -21.0804 84.5377 spur-split 2675 2669 _____P________ -1 -21.0804 84.5377 99 3 152
1869305S06092 1870 23 SI MM NOT_NAMED 1869-11-08 00:00:00 NR -21.2266 84.6251 spur-split 2678 2678 _____P________ -1 -21.2266 84.6251 99 3 150
1869305S06092 1870 23 SI MM NOT_NAMED 1869-11-08 03:00:00 NR -21.3652 84.7125 spur-split 2689 2683 _____P________ -1 -21.3652 84.7125 99 3 149
1869305S06092 1870 23 SI MM NOT_NAMED 1869-11-08 06:00:00 NR -21.5000 84.8000 spur-split 2692 _____O________ -1 -21.5000 84.8000 99 9.90000 3 148

IBTrACS Databaseについて

本データベースは、米国NOAAが公開する1842年以降の世界の熱帯低気圧のベストトラックデータアーカイブInternational Best Track Archive for Climate Stewardship (IBTrACS)を、ウェブで閲覧しやすい形式に変換したものです。

最終更新日:2021-11-26